Time;durP1;ratioP1;P1;durP2;ratioP2;P2;SDS_P1;SDS_P2;PMS_P1;PMS_P2;Temp;Humidity;BMP_temperature;BMP_pressure;BME280_temperature;BME280_humidity;BME280_pressure;Samples;Min_cycle;Max_cycle;Signal;HPM_P1;HPM_P2
2020/12/18 00:00:36;;;;;;;2.45;1.75;;;;;;;26.83;31.35;97355.03;4947115;28;20403;-32
2020/12/18 00:03:02;;;;;;;1.67;1.50;;;;;;;26.83;31.36;97353.28;4948160;28;20105;-35
2020/12/18 00:05:32;;;;;;;2.05;1.60;;;;;;;26.83;31.23;97355.91;4945495;28;20053;-36
2020/12/18 00:07:58;;;;;;;2.72;1.80;;;;;;;26.83;31.30;97355.91;4942682;28;20031;-34
2020/12/18 00:10:23;;;;;;;1.92;1.52;;;;;;;26.82;31.39;97364.72;4945267;28;20054;-36
2020/12/18 00:12:49;;;;;;;1.85;1.50;;;;;;;26.81;31.22;97352.47;4947378;28;20046;-33
2020/12/18 00:15:15;;;;;;;1.92;1.50;;;;;;;26.77;31.39;97348.28;4951862;28;20070;-35
2020/12/18 00:17:40;;;;;;;2.60;1.42;;;;;;;26.79;31.32;97350.84;4949582;28;20134;-33
2020/12/18 00:20:06;;;;;;;2.58;1.80;;;;;;;26.77;31.20;97352.72;4948128;28;20050;-35
2020/12/18 00:22:32;;;;;;;2.30;1.85;;;;;;;26.75;31.39;97355.41;4949267;28;20128;-33
2020/12/18 00:24:58;;;;;;;2.92;1.70;;;;;;;26.75;31.34;97358.03;4951003;28;20039;-32
2020/12/18 00:27:24;;;;;;;2.00;1.55;;;;;;;26.74;31.30;97356.34;4953132;28;20065;-33
2020/12/18 00:29:49;;;;;;;1.98;1.52;;;;;;;26.73;31.29;97359.88;4949176;28;20035;-35
2020/12/18 00:32:15;;;;;;;2.00;1.60;;;;;;;26.73;31.25;97359.88;4954333;28;20051;-33
2020/12/18 00:34:40;;;;;;;1.90;1.48;;;;;;;26.72;31.36;97366.06;4949537;28;20054;-33
2020/12/18 00:37:07;;;;;;;2.63;1.70;;;;;;;26.72;31.31;97360.81;4951505;28;20066;-34
2020/12/18 00:39:32;;;;;;;2.40;1.60;;;;;;;26.71;31.26;97373.13;4950544;28;20038;-34
2020/12/18 00:41:58;;;;;;;1.65;1.52;;;;;;;26.68;31.23;97368.00;4952610;28;20791;-36
2020/12/18 00:44:24;;;;;;;2.17;1.60;;;;;;;26.71;31.24;97372.25;4964617;28;20043;-34
2020/12/18 00:46:50;;;;;;;3.13;1.70;;;;;;;26.70;31.20;97365.31;4952477;28;20370;-33
2020/12/18 00:49:15;;;;;;;1.80;1.40;;;;;;;26.67;31.25;97370.69;4951356;28;20155;-36
2020/12/18 00:51:41;;;;;;;2.30;1.70;;;;;;;26.68;31.24;97369.78;4964771;28;20071;-33
2020/12/18 00:54:07;;;;;;;1.90;1.40;;;;;;;26.67;31.16;97374.19;4955142;28;20116;-33
2020/12/18 00:56:33;;;;;;;1.60;1.50;;;;;;;26.66;31.27;97374.25;4950943;28;20034;-38
2020/12/18 00:58:59;;;;;;;3.08;1.60;;;;;;;26.65;31.08;97383.09;4951522;28;20322;-37
2020/12/18 01:01:25;;;;;;;1.70;1.45;;;;;;;26.65;31.21;97375.19;4949021;28;20035;-35
2020/12/18 01:03:50;;;;;;;2.15;1.60;;;;;;;26.64;31.09;97371.72;4967693;28;20050;-32
2020/12/18 01:06:16;;;;;;;2.90;1.67;;;;;;;26.62;31.23;97378.81;4950387;28;20197;-34
2020/12/18 01:08:42;;;;;;;2.55;1.60;;;;;;;26.61;31.09;97375.34;4964112;28;20039;-33
2020/12/18 01:11:08;;;;;;;2.10;1.67;;;;;;;26.63;31.06;97384.91;4947916;28;20085;-34
2020/12/18 01:13:34;;;;;;;3.58;1.70;;;;;;;26.63;31.21;97391.03;4948190;28;20741;-33
2020/12/18 01:16:00;;;;;;;1.73;1.40;;;;;;;26.63;31.12;97387.53;4948780;28;20061;-34
2020/12/18 01:18:26;;;;;;;2.28;1.40;;;;;;;26.61;31.06;97382.34;4951056;28;20478;-34
2020/12/18 01:20:52;;;;;;;1.98;1.63;;;;;;;26.60;31.12;97388.53;4950187;28;20046;-35
2020/12/18 01:23:17;;;;;;;2.67;1.75;;;;;;;26.60;31.11;97394.66;4954698;28;20043;-33
2020/12/18 01:25:43;;;;;;;2.25;1.80;;;;;;;26.60;31.02;97392.03;4966062;28;20047;-31
2020/12/18 01:28:09;;;;;;;2.00;1.67;;;;;;;26.60;31.07;97397.28;4954491;28;20707;-33
2020/12/18 01:30:35;;;;;;;1.65;1.40;;;;;;;26.58;31.07;97399.13;4947874;28;20651;-37
2020/12/18 01:33:01;;;;;;;1.50;1.40;;;;;;;26.59;31.07;97406.06;4945409;28;20055;-33
2020/12/18 01:35:26;;;;;;;1.75;1.58;;;;;;;26.58;31.11;97404.38;4950267;28;20047;-33
2020/12/18 01:37:52;;;;;;;2.22;1.60;;;;;;;26.59;30.93;97406.06;4953819;28;20050;-34
2020/12/18 01:40:18;;;;;;;1.60;1.50;;;;;;;26.59;31.07;97395.56;4947115;28;20047;-34
2020/12/18 01:42:43;;;;;;;3.58;1.50;;;;;;;26.58;31.11;97399.13;4949528;28;20043;-31
2020/12/18 01:45:09;;;;;;;1.88;1.58;;;;;;;26.57;31.07;97404.44;4953357;28;20102;-33
2020/12/18 01:47:34;;;;;;;1.50;1.40;;;;;;;26.57;31.16;97392.16;4951559;28;20039;-33
2020/12/18 01:50:00;;;;;;;1.50;1.40;;;;;;;26.57;31.08;97386.91;4965202;28;20093;-35
2020/12/18 01:52:26;;;;;;;1.73;1.52;;;;;;;26.58;31.03;97393.03;4945385;28;20125;-34
2020/12/18 01:54:52;;;;;;;3.13;1.73;;;;;;;26.58;30.91;97390.41;4944976;28;20047;-34
2020/12/18 01:57:18;;;;;;;1.63;1.38;;;;;;;26.56;31.08;97387.84;4953583;28;20038;-36
2020/12/18 01:59:44;;;;;;;3.28;1.70;;;;;;;26.54;30.96;97380.97;4949978;28;20081;-32
2020/12/18 02:02:10;;;;;;;1.63;1.33;;;;;;;26.57;30.97;97376.41;4934578;28;20427;-36
2020/12/18 02:04:37;;;;;;;1.95;1.73;;;;;;;26.58;30.96;97383.34;4945185;28;20045;-35
2020/12/18 02:07:03;;;;;;;1.70;1.60;;;;;;;26.59;30.79;97385.06;4969466;28;20107;-33
2020/12/18 02:09:28;;;;;;;2.13;1.70;;;;;;;26.60;30.85;97384.16;4966767;28;20104;-34
2020/12/18 02:11:54;;;;;;;1.70;1.60;;;;;;;26.58;30.74;97383.34;4966827;28;20140;-33
2020/12/18 02:14:19;;;;;;;2.67;1.80;;;;;;;26.60;30.73;97378.91;4935149;28;20055;-33
2020/12/18 02:16:45;;;;;;;1.60;1.50;;;;;;;26.61;30.65;97385.84;4963728;28;20051;-36
2020/12/18 02:19:10;;;;;;;2.45;1.85;;;;;;;26.61;30.93;97382.34;4946341;28;20035;-34
2020/12/18 02:21:39;;;;;;;1.50;1.40;;;;;;;26.62;30.64;97391.97;4943282;28;20042;-34
2020/12/18 02:24:05;;;;;;;2.35;1.50;;;;;;;26.61;30.82;97388.47;4950833;28;20142;-34
2020/12/18 02:26:30;;;;;;;1.80;1.65;;;;;;;26.61;30.67;97384.97;4943408;28;20808;-34
2020/12/18 02:28:55;;;;;;;1.50;1.40;;;;;;;26.61;30.64;97382.34;4948080;28;20047;-33
2020/12/18 02:31:21;;;;;;;1.75;1.55;;;;;;;26.62;30.75;97376.19;4950403;28;20050;-34
2020/12/18 02:33:47;;;;;;;2.05;1.73;;;;;;;26.60;30.70;97378.03;4951247;28;20517;-37
2020/12/18 02:36:13;;;;;;;1.90;1.48;;;;;;;26.63;30.84;97379.66;4948941;28;20373;-35
2020/12/18 02:38:38;;;;;;;1.90;1.60;;;;;;;26.62;30.71;97384.09;4947547;28;20093;-33
2020/12/18 02:41:05;;;;;;;1.50;1.40;;;;;;;26.63;30.60;97383.16;4951297;28;20062;-34
2020/12/18 02:43:31;;;;;;;1.75;1.65;;;;;;;26.65;30.62;97372.56;4950626;28;20422;-33
2020/12/18 02:45:57;;;;;;;1.75;1.40;;;;;;;26.65;30.56;97356.78;4941575;28;20626;-34
2020/12/18 02:48:22;;;;;;;1.50;1.30;;;;;;;26.66;30.64;97358.50;4949191;28;20046;-35
2020/12/18 02:50:49;;;;;;;2.25;1.60;;;;;;;26.67;30.58;97354.94;4950513;28;20046;-35
2020/12/18 02:53:16;;;;;;;2.22;1.50;;;;;;;26.67;30.54;97365.44;4947099;28;20042;-33
2020/12/18 02:55:42;;;;;;;2.45;1.83;;;;;;;26.65;30.53;97356.78;4948613;28;20488;-35
2020/12/18 02:58:08;;;;;;;3.70;1.80;;;;;;;26.66;30.46;97361.94;4950946;28;20134;-35
2020/12/18 03:00:34;;;;;;;1.70;1.60;;;;;;;26.67;30.63;97355.78;4950613;28;20516;-32
2020/12/18 03:03:00;;;;;;;1.88;1.30;;;;;;;26.65;30.52;97356.78;4945162;28;20828;-34
2020/12/18 03:05:25;;;;;;;2.40;1.65;;;;;;;26.66;30.38;97358.50;4948553;28;20043;-37
2020/12/18 03:07:52;;;;;;;1.80;1.50;;;;;;;26.65;30.47;97354.16;4944343;28;20122;-34
2020/12/18 03:10:18;;;;;;;1.90;1.48;;;;;;;26.64;30.40;97365.59;4947237;28;20113;-35
2020/12/18 03:12:44;;;;;;;1.95;1.70;;;;;;;26.63;30.45;97351.59;4946525;28;20054;-33
2020/12/18 03:15:09;;;;;;;5.38;2.65;;;;;;;26.60;28.98;97355.25;4944765;28;20055;-35
2020/12/18 03:17:35;;;;;;;2.72;2.10;;;;;;;26.58;29.60;97346.56;4958118;28;20658;-33
2020/12/18 03:20:00;;;;;;;2.10;1.77;;;;;;;26.57;30.23;97355.38;4950039;28;20489;-32
2020/12/18 03:22:27;;;;;;;4.10;1.65;;;;;;;26.55;30.35;97349.31;4947545;28;20067;-34
2020/12/18 03:24:52;;;;;;;3.20;1.73;;;;;;;26.53;30.56;97348.56;4945989;28;20050;-34
2020/12/18 03:27:19;;;;;;;1.83;1.70;;;;;;;26.54;30.42;97358.13;4947423;28;20056;-36
2020/12/18 03:29:44;;;;;;;1.50;1.40;;;;;;;26.53;30.44;97348.56;4946335;28;20077;-31
2020/12/18 03:32:10;;;;;;;1.77;1.40;;;;;;;26.53;30.51;97363.47;4944024;28;20047;-37
2020/12/18 03:34:37;;;;;;;3.63;1.98;;;;;;;26.53;30.48;97356.44;4949051;28;20081;-34
2020/12/18 03:37:03;;;;;;;4.22;1.58;;;;;;;26.53;30.51;97351.19;4946438;28;20452;-33
2020/12/18 03:39:28;;;;;;;2.50;1.73;;;;;;;26.53;30.47;97353.81;4947674;28;20050;-34
2020/12/18 03:41:54;;;;;;;2.10;1.60;;;;;;;26.54;30.59;97359.94;4941023;28;20030;-34
2020/12/18 03:44:20;;;;;;;2.35;1.40;;;;;;;26.54;30.67;97359.94;4947979;28;20046;-37
2020/12/18 03:46:46;;;;;;;1.73;1.35;;;;;;;26.54;30.50;97355.50;4944732;28;20054;-32
2020/12/18 03:49:12;;;;;;;1.58;1.48;;;;;;;26.53;30.69;97351.19;4947035;28;20074;-35
2020/12/18 03:51:37;;;;;;;1.30;1.20;;;;;;;26.54;30.62;97350.25;4946337;28;20042;-34
2020/12/18 03:54:03;;;;;;;1.83;1.30;;;;;;;26.55;30.48;97349.31;4951625;28;20415;-33
2020/12/18 03:56:28;;;;;;;6.70;1.42;;;;;;;26.57;30.57;97355.38;4942689;28;20054;-34
2020/12/18 03:58:54;;;;;;;1.10;1.00;;;;;;;26.55;30.66;97354.56;4963460;28;20137;-36
2020/12/18 04:01:19;;;;;;;1.83;1.38;;;;;;;26.54;30.66;97347.63;4944736;28;20042;-33
2020/12/18 04:03:45;;;;;;;1.92;1.42;;;;;;;26.53;30.56;97348.56;4945632;28;20046;-35
2020/12/18 04:06:11;;;;;;;1.67;1.40;;;;;;;26.54;30.52;97344.16;4948663;28;20104;-33
2020/12/18 04:08:36;;;;;;;1.65;1.45;;;;;;;26.55;30.57;97346.69;4951188;28;20051;-33
2020/12/18 04:11:02;;;;;;;3.13;1.40;;;;;;;26.56;30.64;97344.94;4946463;28;20586;-34
2020/12/18 04:13:27;;;;;;;1.63;1.40;;;;;;;26.55;30.58;97346.69;4945129;28;20051;-34
2020/12/18 04:15:53;;;;;;;2.05;1.60;;;;;;;26.53;30.64;97348.56;4945311;28;20050;-33
2020/12/18 04:18:19;;;;;;;1.50;1.20;;;;;;;26.52;30.81;97346.84;4947149;28;20125;-34
2020/12/18 04:20:44;;;;;;;1.92;1.50;;;;;;;26.52;30.61;97346.84;4946029;28;20051;-33
2020/12/18 04:23:10;;;;;;;1.55;1.27;;;;;;;26.51;30.73;97341.66;4952804;28;20043;-34
2020/12/18 04:25:36;;;;;;;1.42;1.33;;;;;;;26.50;30.82;97340.81;4948094;28;20509;-33
2020/12/18 04:28:02;;;;;;;2.13;1.25;;;;;;;26.50;30.83;97338.19;4943076;28;20046;-34
2020/12/18 04:30:27;;;;;;;2.03;1.30;;;;;;;26.50;30.73;97326.84;4944789;28;20050;-33
2020/12/18 04:32:53;;;;;;;1.52;1.13;;;;;;;26.50;30.72;97339.97;4947985;28;20557;-32
2020/12/18 04:35:19;;;;;;;1.23;1.13;;;;;;;26.50;30.67;97338.19;4949678;28;20547;-33
2020/12/18 04:37:44;;;;;;;1.20;1.00;;;;;;;26.51;30.75;97333.78;4944133;28;20047;-34
2020/12/18 04:40:10;;;;;;;2.22;1.20;;;;;;;26.51;30.51;97325.91;4947387;28;20053;-33
2020/12/18 04:42:36;;;;;;;1.75;1.33;;;;;;;26.50;30.78;97322.41;4946999;28;20054;-33
2020/12/18 04:45:03;;;;;;;2.00;1.25;;;;;;;26.51;30.71;97329.41;4950009;28;20039;-34
2020/12/18 04:47:28;;;;;;;1.45;1.30;;;;;;;26.50;30.67;97327.66;4963911;28;20043;-35
2020/12/18 04:49:53;;;;;;;2.42;1.10;;;;;;;26.50;30.84;97317.16;4943885;28;20065;-32
2020/12/18 04:52:19;;;;;;;1.45;1.35;;;;;;;26.52;30.66;97315.31;4961933;28;20035;-34
2020/12/18 04:54:44;;;;;;;1.27;1.08;;;;;;;26.51;30.60;97323.28;4945638;28;20381;-34
2020/12/18 04:57:10;;;;;;;1.50;1.40;;;;;;;26.51;30.74;97312.75;4944228;28;20058;-33
2020/12/18 04:59:35;;;;;;;1.67;1.30;;;;;;;26.49;30.65;97310.19;4933855;28;20041;-35
2020/12/18 05:02:01;;;;;;;1.90;1.10;;;;;;;26.49;30.84;97310.19;4958877;28;20067;-33
2020/12/18 05:04:27;;;;;;;1.23;1.13;;;;;;;26.50;30.68;97311.91;4945838;28;20043;-33
2020/12/18 05:06:53;;;;;;;1.63;1.20;;;;;;;26.51;30.76;97324.13;4946655;28;20105;-32
2020/12/18 05:09:19;;;;;;;1.20;1.00;;;;;;;26.51;30.91;97332.03;4946028;28;20086;-34
2020/12/18 05:11:45;;;;;;;1.27;1.17;;;;;;;26.52;30.79;97330.22;4948623;28;20567;-33
2020/12/18 05:14:11;;;;;;;1.88;1.30;;;;;;;26.51;30.69;97333.78;4967642;28;20046;-35
2020/12/18 05:16:36;;;;;;;1.10;0.95;;;;;;;26.50;30.71;97340.81;4958522;28;20078;-35
2020/12/18 05:19:03;;;;;;;1.45;1.20;;;;;;;26.49;30.80;97336.47;4951024;28;20055;-31
2020/12/18 05:21:29;;;;;;;1.08;1.00;;;;;;;26.50;30.73;97338.19;4952229;28;20038;-32
2020/12/18 05:23:55;;;;;;;3.83;1.42;;;;;;;26.50;29.76;97332.09;4951832;28;20043;-33
2020/12/18 05:26:21;;;;;;;2.13;1.38;;;;;;;26.48;30.20;97334.78;4967271;28;20427;-32
2020/12/18 05:28:47;;;;;;;1.48;1.27;;;;;;;26.47;30.74;97333.09;4951193;28;20126;-34
2020/12/18 05:31:17;;;;;;;1.10;1.00;;;;;;;26.45;30.64;97327.03;4949959;28;20106;-33
2020/12/18 05:33:43;;;;;;;1.33;1.17;;;;;;;26.46;30.65;97320.84;4947055;28;20113;-33
2020/12/18 05:36:08;;;;;;;3.65;1.23;;;;;;;26.44;30.77;97318.31;4954368;28;20500;-33
2020/12/18 05:38:38;;;;;;;1.20;1.10;;;;;;;26.45;30.77;97329.66;4950397;28;20370;-35
2020/12/18 05:41:04;;;;;;;1.50;1.13;;;;;;;26.45;30.82;97322.66;4944832;28;20816;-34
2020/12/18 05:43:37;;;;;;;2.35;1.02;;;;;;;26.45;30.74;97324.41;4950782;28;20081;-33
2020/12/18 05:46:16;;;;;;;1.20;1.10;;;;;;;26.45;30.68;97330.53;4950965;28;21014;-35
2020/12/18 05:48:52;;;;;;;1.67;1.20;;;;;;;26.45;30.85;97329.66;4950004;28;20067;-36
2020/12/18 05:51:35;;;;;;;1.40;1.20;;;;;;;26.46;30.78;97332.22;4950106;28;20043;-33
2020/12/18 05:54:14;;;;;;;1.80;1.10;;;;;;;26.46;30.72;97334.00;4949530;28;21633;-34
2020/12/18 05:56:42;;;;;;;2.63;0.93;;;;;;;26.46;30.83;97342.75;4950221;28;20054;-35
2020/12/18 05:59:12;;;;;;;2.40;1.10;;;;;;;26.48;30.82;97340.03;4945654;28;20105;-33
2020/12/18 06:01:44;;;;;;;1.10;0.90;;;;;;;26.47;30.92;97335.72;4949634;28;20093;-34
2020/12/18 06:04:10;;;;;;;;;;;;;;;26.48;30.81;97345.28;4948007;28;20126;-35
2020/12/18 06:06:39;;;;;;;2.75;1.30;;;;;;;26.42;30.83;97329.81;4951160;28;20323;-33
2020/12/18 06:09:05;;;;;;;1.35;1.00;;;;;;;26.46;30.98;97334.00;4929554;28;20046;-33
2020/12/18 06:11:31;;;;;;;2.05;1.23;;;;;;;26.45;30.93;97325.28;4961643;28;20723;-35
2020/12/18 06:13:58;;;;;;;1.13;1.00;;;;;;;26.48;30.93;97329.53;4953315;28;20077;-33
2020/12/18 06:16:25;;;;;;;1.13;1.02;;;;;;;26.48;30.82;97329.53;4946668;28;20051;-34
2020/12/18 06:18:53;;;;;;;1.25;1.02;;;;;;;26.49;30.87;97336.47;4950926;28;20038;-32
2020/12/18 06:21:18;;;;;;;1.30;1.00;;;;;;;26.47;30.74;97339.19;4948194;28;20054;-34
2020/12/18 06:23:45;;;;;;;1.10;0.80;;;;;;;26.48;30.83;97334.78;4952679;28;20051;-33
2020/12/18 06:26:11;;;;;;;1.00;0.90;;;;;;;26.47;30.86;97327.84;4963065;28;20035;-32
2020/12/18 06:28:37;;;;;;;1.30;1.00;;;;;;;26.48;30.89;97329.53;4947562;28;20372;-35
2020/12/18 06:31:28;;;;;;;1.10;0.80;;;;;;;26.48;30.89;97329.53;4960735;28;20448;-37
2020/12/18 06:33:55;;;;;;;1.10;1.00;;;;;;;26.48;30.88;97329.53;4949038;28;20055;-35
2020/12/18 06:36:45;;;;;;;2.22;1.02;;;;;;;26.48;30.88;97329.53;4944188;28;20051;-34
2020/12/18 06:39:29;;;;;;;2.33;1.05;;;;;;;26.48;30.87;97334.78;4945655;28;20078;-36
2020/12/18 06:42:22;;;;;;;1.58;0.95;;;;;;;26.49;30.89;97331.22;4946786;28;20044;-34
2020/12/18 06:44:49;;;;;;;1.35;1.00;;;;;;;26.49;30.96;97331.22;4949685;28;20038;-35
2020/12/18 06:47:25;;;;;;;1.33;1.20;;;;;;;26.50;30.75;97337.34;4947825;28;20136;-39
2020/12/18 06:50:11;;;;;;;3.30;1.20;;;;;;;26.50;30.73;97332.91;4950429;28;20035;-35
2020/12/18 06:52:44;;;;;;;1.20;1.10;;;;;;;26.50;30.87;97338.19;4943829;28;20514;-35
2020/12/18 06:55:10;;;;;;;1.00;0.90;;;;;;;26.51;30.78;97334.66;4945479;28;20038;-36
2020/12/18 06:57:36;;;;;;;1.13;1.02;;;;;;;26.52;30.83;97341.59;4949729;28;20047;-33
2020/12/18 07:00:23;;;;;;;1.67;1.05;;;;;;;26.53;30.78;97334.56;4953210;28;20123;-32
2020/12/18 07:02:49;;;;;;;1.30;1.00;;;;;;;26.55;30.78;97335.34;4944689;28;20574;-32
2020/12/18 07:05:33;;;;;;;1.70;1.15;;;;;;;26.55;30.63;97336.19;4967880;28;20047;-33
2020/12/18 07:08:05;;;;;;;1.10;0.88;;;;;;;26.55;30.83;97335.34;4949844;28;20049;-33
2020/12/18 07:10:43;;;;;;;1.38;1.05;;;;;;;26.56;30.69;97337.03;4946123;28;20492;-36
2020/12/18 07:13:21;;;;;;;0.98;0.82;;;;;;;26.54;30.69;97337.09;4945642;28;20607;-35
2020/12/18 07:15:46;;;;;;;2.10;1.15;;;;;;;26.56;30.75;97337.03;4961061;28;20043;-33
2020/12/18 07:18:31;;;;;;;1.20;1.02;;;;;;;26.56;30.77;97332.66;4947449;28;20045;-33
2020/12/18 07:21:10;;;;;;;1.05;0.95;;;;;;;26.58;30.71;97333.41;4950745;28;20041;-34
2020/12/18 07:23:37;;;;;;;1.80;1.15;;;;;;;26.56;30.82;97329.16;4958501;28;20047;-31
2020/12/18 07:26:03;;;;;;;1.73;1.20;;;;;;;26.57;30.63;97334.34;4961178;28;20035;-33
2020/12/18 07:28:30;;;;;;;1.38;1.10;;;;;;;26.58;30.75;97341.31;4944790;28;20049;-35
2020/12/18 07:30:56;;;;;;;1.40;1.10;;;;;;;26.58;30.76;97338.66;4944735;28;20038;-33
2020/12/18 07:33:21;;;;;;;1.33;1.02;;;;;;;26.59;30.61;97332.47;4948033;28;20145;-33
2020/12/18 07:35:54;;;;;;;1.42;1.15;;;;;;;26.59;30.58;97343.00;4964153;28;20878;-33
2020/12/18 07:38:22;;;;;;;2.00;1.17;;;;;;;26.58;30.70;97341.31;4948745;28;20043;-35
2020/12/18 07:40:49;;;;;;;1.42;1.30;;;;;;;26.60;30.73;97342.09;4945976;28;20043;-36
2020/12/18 07:43:15;;;;;;;2.03;1.10;;;;;;;26.59;30.65;97340.38;4949955;28;20147;-34
2020/12/18 07:45:44;;;;;;;1.88;1.20;;;;;;;26.58;30.62;97329.94;4943610;28;20082;-35
2020/12/18 07:48:11;;;;;;;6.90;2.28;;;;;;;26.56;28.43;97337.91;4946483;28;20169;-33
2020/12/18 07:50:37;;;;;;;7.88;2.70;;;;;;;26.53;27.04;97335.41;4946993;28;20061;-34
2020/12/18 07:53:09;;;;;;;5.88;2.80;;;;;;;26.46;26.25;97331.38;4947869;28;20043;-33
2020/12/18 07:55:34;;;;;;;;;;;;;;;26.40;28.59;97327.28;4944658;28;20027;-35
2020/12/18 07:58:00;;;;;;;3.78;1.70;;;;;;;26.34;29.83;97328.41;4954086;28;19960;-36
2020/12/18 08:00:26;;;;;;;5.13;2.00;;;;;;;26.31;30.10;97330.34;4948799;28;20093;-34
2020/12/18 08:02:52;;;;;;;2.45;1.75;;;;;;;26.29;30.40;97330.41;4949959;28;20027;-35
2020/12/18 08:05:21;;;;;;;2.40;1.58;;;;;;;26.29;30.55;97322.53;4951387;28;20043;-35
2020/12/18 08:07:48;;;;;;;3.75;1.58;;;;;;;26.33;30.74;97326.72;4949274;28;20066;-33
2020/12/18 08:10:15;;;;;;;6.50;1.42;;;;;;;26.38;30.71;97317.75;4964133;28;22264;-35
2020/12/18 08:12:41;;;;;;;1.70;1.35;;;;;;;26.42;30.64;97314.03;4947938;28;20596;-34
2020/12/18 08:15:15;;;;;;;2.58;1.67;;;;;;;26.44;30.68;97322.72;4949468;28;20058;-35
2020/12/18 08:17:41;;;;;;;1.88;1.52;;;;;;;26.44;30.71;97323.56;4949065;28;20748;-34
2020/12/18 08:20:08;;;;;;;1.30;1.20;;;;;;;26.48;30.74;97330.38;4947026;28;20046;-39
2020/12/18 08:22:44;;;;;;;2.33;1.40;;;;;;;26.49;30.84;97325.97;4950501;28;20046;-36
2020/12/18 08:25:11;;;;;;;2.40;1.30;;;;;;;26.53;30.77;97330.16;4947640;28;20039;-39
2020/12/18 08:27:40;;;;;;;1.67;1.20;;;;;;;26.55;30.83;97333.56;4950974;28;20042;-41
2020/12/18 08:30:06;;;;;;;2.33;1.60;;;;;;;26.58;30.50;97325.53;4946027;28;20414;-33
2020/12/18 08:32:32;;;;;;;1.77;1.27;;;;;;;26.58;30.96;97329.94;4946494;28;20047;-36
2020/12/18 08:35:01;;;;;;;2.70;1.33;;;;;;;26.56;31.09;97324.75;4948847;28;20047;-35
2020/12/18 08:37:27;;;;;;;2.90;1.42;;;;;;;26.58;31.25;97325.53;4947275;28;20134;-33
2020/12/18 08:39:54;;;;;;;1.65;1.48;;;;;;;26.58;31.40;97333.41;4949593;28;20113;-34
2020/12/18 08:42:19;;;;;;;1.55;1.23;;;;;;;26.58;31.58;97338.66;4949692;28;20038;-34
2020/12/18 08:44:45;;;;;;;1.75;1.20;;;;;;;26.59;31.48;97331.66;4948602;28;20074;-33
2020/12/18 08:47:25;;;;;;;2.42;1.60;;;;;;;26.60;31.67;97342.09;4952221;28;20086;-32
2020/12/18 08:49:52;;;;;;;1.67;1.40;;;;;;;26.59;31.63;97331.66;4957137;28;20050;-32
2020/12/18 08:52:22;;;;;;;3.33;1.50;;;;;;;26.60;31.73;97338.59;4951660;28;20042;-35
2020/12/18 08:54:48;;;;;;;1.20;1.02;;;;;;;26.59;31.75;97337.72;4954784;28;20047;-36
2020/12/18 08:57:29;;;;;;;3.35;1.67;;;;;;;26.61;32.08;97341.16;4953103;28;20507;-35
2020/12/18 09:00:18;;;;;;;1.67;1.38;;;;;;;26.60;31.80;97342.09;4952350;28;20098;-34
2020/12/18 09:02:50;;;;;;;1.88;1.30;;;;;;;26.63;31.74;97342.84;4963447;28;20050;-32
2020/12/18 09:05:43;;;;;;;1.55;1.10;;;;;;;26.63;31.88;97342.84;4949394;28;20030;-35
2020/12/18 09:08:20;;;;;;;3.30;1.40;;;;;;;26.67;31.74;97341.78;4952761;28;21740;-32
2020/12/18 09:10:57;;;;;;;4.75;1.30;;;;;;;26.69;31.58;97350.47;4964169;28;20035;-39
2020/12/18 09:13:24;;;;;;;4.28;2.50;;;;;;;26.71;28.81;97344.22;4954936;28;20650;-34
2020/12/18 09:15:56;;;;;;;3.05;2.30;;;;;;;26.73;27.07;97346.75;4950581;28;20047;-34
2020/12/18 09:18:23;;;;;;;6.82;4.18;;;;;;;26.44;23.72;97338.47;4955336;28;20034;-33
2020/12/18 09:20:48;;;;;;;8.38;4.20;;;;;;;26.04;23.19;97335.88;4953497;28;20125;-33
2020/12/18 09:23:15;;;;;;;7.47;4.75;;;;;;;25.62;23.41;97345.63;4950568;28;21974;-31
2020/12/18 09:25:48;;;;;;;7.85;4.80;;;;;;;25.19;23.50;97343.88;4951661;28;20573;-35
2020/12/18 09:28:18;;;;;;;6.10;4.45;;;;;;;24.76;24.17;97347.34;4951878;28;20143;-32
2020/12/18 09:30:46;;;;;;;45.97;13.57;;;;;;;24.47;25.19;97357.19;4949283;28;20046;-33
2020/12/18 09:33:29;;;;;;;31.52;9.63;;;;;;;24.39;25.78;97354.00;4952412;28;20049;-32
2020/12/18 09:35:59;;;;;;;21.60;7.68;;;;;;;24.44;26.73;97353.84;4951738;28;20035;-37
2020/12/18 09:38:29;;;;;;;23.17;7.18;;;;;;;24.53;27.28;97351.69;4954619;28;20053;-34
2020/12/18 09:40:55;;;;;;;21.88;7.07;;;;;;;24.65;27.86;97354.75;4954372;28;20110;-33
2020/12/18 09:43:20;;;;;;;22.80;7.93;;;;;;;24.80;27.94;97342.81;4949556;28;20047;-37
2020/12/18 09:45:47;;;;;;;26.60;7.43;;;;;;;24.93;28.32;97343.19;4950698;28;20582;-34
2020/12/18 09:48:12;;;;;;;23.95;8.15;;;;;;;25.07;28.66;97344.38;4948625;28;20130;-33
2020/12/18 09:50:38;;;;;;;19.40;7.82;;;;;;;25.18;28.72;97339.56;4946426;28;20169;-36
2020/12/18 09:53:04;;;;;;;29.90;8.63;;;;;;;25.27;28.90;97331.31;4947998;28;20047;-32
2020/12/18 09:55:30;;;;;;;27.50;9.05;;;;;;;25.37;28.90;97331.78;4949228;28;23173;-33
2020/12/18 09:57:57;;;;;;;30.40;9.13;;;;;;;25.46;29.04;97327.88;4949007;28;20047;-33
2020/12/18 10:00:22;;;;;;;25.38;8.75;;;;;;;25.53;29.12;97324.09;4949417;28;20093;-33
2020/12/18 10:02:48;;;;;;;30.40;9.68;;;;;;;25.62;29.29;97327.25;4950405;28;20054;-35
2020/12/18 10:05:13;;;;;;;23.73;8.45;;;;;;;25.70;29.26;97327.75;4948384;28;20043;-34
2020/12/18 10:07:39;;;;;;;23.38;9.20;;;;;;;25.76;29.35;97322.25;4951041;28;20089;-35
2020/12/18 10:10:04;;;;;;;23.33;8.27;;;;;;;25.82;29.50;97324.59;4948795;28;20046;-34
2020/12/18 10:12:30;;;;;;;25.92;8.32;;;;;;;25.84;29.48;97319.25;4947154;28;20039;-35
2020/12/18 10:14:56;;;;;;;20.58;7.78;;;;;;;25.87;29.75;97318.28;4967221;28;20035;-37
2020/12/18 10:17:21;;;;;;;23.50;8.45;;;;;;;25.89;29.92;97317.28;4948998;28;20039;-35
2020/12/18 10:19:47;;;;;;;21.90;7.53;;;;;;;25.91;29.66;97314.59;4947371;28;20047;-33
2020/12/18 10:22:12;;;;;;;21.25;7.57;;;;;;;25.93;30.10;97313.59;4951815;28;20719;-34
2020/12/18 10:24:38;;;;;;;21.95;7.78;;;;;;;25.98;30.20;97308.16;4952654;28;20058;-34
2020/12/18 10:27:03;;;;;;;21.58;8.15;;;;;;;26.02;30.39;97307.09;4950016;28;20053;-33
2020/12/18 10:29:29;;;;;;;22.38;7.70;;;;;;;26.06;30.18;97303.41;4956739;28;20179;-31
2020/12/18 10:31:55;;;;;;;24.23;8.07;;;;;;;26.09;30.37;97305.03;4950137;28;20471;-37
2020/12/18 10:34:21;;;;;;;20.83;7.05;;;;;;;26.10;30.41;97299.69;4952313;28;20536;-32
2020/12/18 10:36:51;;;;;;;21.23;7.63;;;;;;;26.14;30.42;97295.16;4952385;28;20074;-35
2020/12/18 10:39:17;;;;;;;21.08;7.53;;;;;;;26.17;30.37;97299.41;4951062;28;20126;-40
2020/12/18 10:41:42;;;;;;;23.48;7.68;;;;;;;26.20;30.60;97294.03;4951753;28;20070;-37
2020/12/18 10:44:08;;;;;;;22.75;7.72;;;;;;;26.23;30.48;97294.72;4961983;28;20043;-34
2020/12/18 10:46:34;;;;;;;19.13;6.88;;;;;;;26.24;30.64;97290.34;4964260;28;20043;-34
2020/12/18 10:49:00;;;;;;;22.45;7.38;;;;;;;26.25;30.56;97297.28;4945245;28;20038;-33
2020/12/18 10:51:27;;;;;;;16.92;6.28;;;;;;;26.23;30.83;97294.72;4957946;28;20561;-37
2020/12/18 10:53:52;;;;;;;17.20;6.28;;;;;;;26.24;30.88;97287.72;4965024;28;20043;-34
2020/12/18 10:56:18;;;;;;;21.40;6.55;;;;;;;26.28;30.72;97285.81;4962207;28;20579;-35
2020/12/18 10:58:43;;;;;;;19.40;6.28;;;;;;;26.33;30.85;97284.66;4957254;28;20049;-34
2020/12/18 11:01:09;;;;;;;13.40;5.88;;;;;;;26.37;30.77;97280.09;4957863;28;20035;-35
2020/12/18 11:03:34;;;;;;;14.55;5.82;;;;;;;26.41;30.86;97280.81;4964063;28;20385;-34
2020/12/18 11:06:04;;;;;;;17.15;5.38;;;;;;;26.40;30.74;97279.97;4962134;28;20133;-37
2020/12/18 11:08:29;;;;;;;13.70;5.25;;;;;;;26.40;30.94;97273.84;4960790;28;21084;-36
2020/12/18 11:10:55;;;;;;;16.52;5.53;;;;;;;26.40;30.91;97268.59;4959996;28;20105;-34
2020/12/18 11:13:21;;;;;;;14.35;5.38;;;;;;;26.41;30.98;97265.03;4958714;28;20061;-34
2020/12/18 11:15:47;;;;;;;13.45;5.35;;;;;;;26.42;30.90;97266.72;4960713;28;20050;-40
2020/12/18 11:18:12;;;;;;;14.73;4.93;;;;;;;26.43;30.91;97256.16;4952068;28;20130;-33
2020/12/18 11:20:38;;;;;;;11.27;4.95;;;;;;;26.44;30.85;97257.00;4963440;28;20046;-31
2020/12/18 11:23:03;;;;;;;10.63;4.40;;;;;;;26.45;31.10;97262.19;4960552;28;20035;-34
2020/12/18 11:25:29;;;;;;;13.13;4.82;;;;;;;26.46;31.29;97255.16;4959375;28;20035;-35
2020/12/18 11:27:54;;;;;;;16.48;5.13;;;;;;;26.46;31.08;97256.00;4959437;28;20065;-33
2020/12/18 11:30:20;;;;;;;13.65;4.90;;;;;;;26.48;31.22;97245.44;4973691;28;20428;-33
2020/12/18 11:32:45;;;;;;;12.95;4.53;;;;;;;26.49;31.17;97247.13;4957890;28;20078;-33